Time;durP1;ratioP1;P1;durP2;ratioP2;P2;SDS_P1;SDS_P2;PMS_P1;PMS_P2;Temp;Humidity;BMP_temperature;BMP_pressure;BME280_temperature;BME280_humidity;BME280_pressure;Samples;Min_cycle;Max_cycle;Signal;HPM_P1;HPM_P2
2022/02/22 00:02:10;;;;;;;48.85;6.53;;;5.50;99.90;;;;;;5037202;28;20036;-78
2022/02/22 00:04:38;;;;;;;48.70;7.05;;;5.50;99.90;;;;;;5043419;28;20043;-78
2022/02/22 00:07:05;;;;;;;43.38;7.45;;;5.50;99.90;;;;;;5051938;28;20033;-78
2022/02/22 00:09:32;;;;;;;40.50;5.72;;;5.50;99.90;;;;;;5050721;28;20045;-78
2022/02/22 00:11:58;;;;;;;46.70;6.85;;;5.50;99.90;;;;;;5047928;28;20037;-78
2022/02/22 00:14:25;;;;;;;49.30;7.50;;;5.50;99.90;;;;;;5052287;28;20047;-77
2022/02/22 00:16:55;;;;;;;38.50;6.60;;;5.60;99.90;;;;;;5054952;28;20060;-78
2022/02/22 00:19:26;;;;;;;46.55;7.40;;;5.50;99.90;;;;;;5053274;28;20049;-78
2022/02/22 00:21:53;;;;;;;55.17;7.10;;;5.50;99.90;;;;;;5033300;28;20033;-78
2022/02/22 00:24:19;;;;;;;42.80;6.63;;;5.50;99.90;;;;;;5067386;28;20053;-78
2022/02/22 00:26:45;;;;;;;40.38;6.05;;;5.50;99.90;;;;;;5045208;28;20037;-78
2022/02/22 00:29:14;;;;;;;49.08;6.40;;;5.50;99.90;;;;;;5044432;28;20045;-78
2022/02/22 00:31:40;;;;;;;42.28;6.75;;;5.50;99.90;;;;;;5044195;28;20514;-78
2022/02/22 00:34:07;;;;;;;50.25;6.38;;;5.50;99.90;;;;;;5032053;28;20112;-78
2022/02/22 00:36:34;;;;;;;56.33;8.38;;;5.50;99.90;;;;;;5007344;28;20029;-76
2022/02/22 00:39:00;;;;;;;43.08;6.05;;;5.50;99.90;;;;;;5031063;28;20555;-76
2022/02/22 00:41:26;;;;;;;46.50;7.32;;;5.50;99.90;;;;;;5038367;28;20048;-76
2022/02/22 00:43:52;;;;;;;50.53;6.85;;;5.50;99.90;;;;;;5049778;28;20548;-76
2022/02/22 00:46:18;;;;;;;53.30;6.75;;;5.60;99.90;;;;;;5043779;28;20026;-76
2022/02/22 00:48:44;;;;;;;50.70;7.07;;;5.50;99.90;;;;;;5048640;28;20765;-76
2022/02/22 00:51:10;;;;;;;43.15;6.15;;;5.50;99.90;;;;;;5047524;28;20397;-76
2022/02/22 00:53:35;;;;;;;42.95;6.32;;;6.10;99.90;;;;;;5035494;28;20116;-76
2022/02/22 00:56:04;;;;;;;43.05;6.15;;;5.50;99.90;;;;;;5029125;28;20044;-76
2022/02/22 00:58:33;;;;;;;38.35;6.32;;;5.60;99.90;;;;;;5051930;28;20040;-76
2022/02/22 01:00:59;;;;;;;30.73;5.13;;;5.50;99.90;;;;;;5051562;28;20033;-76
2022/02/22 01:03:24;;;;;;;42.65;5.68;;;5.50;99.90;;;;;;5047379;28;20041;-76
2022/02/22 01:05:50;;;;;;;37.97;5.78;;;5.50;99.90;;;;;;5044411;28;20052;-76
2022/02/22 01:08:17;;;;;;;42.78;5.72;;;5.50;99.90;;;;;;5042988;28;20508;-76
2022/02/22 01:10:43;;;;;;;35.17;5.32;;;5.40;99.90;;;;;;5042397;28;20076;-76
2022/02/22 01:13:09;;;;;;;45.95;5.88;;;5.40;99.90;;;;;;5050473;28;20072;-78
2022/02/22 01:15:35;;;;;;;44.13;6.07;;;5.40;99.90;;;;;;5052166;28;20048;-77
2022/02/22 01:18:00;;;;;;;29.95;5.53;;;5.40;99.90;;;;;;5036418;28;20076;-76
2022/02/22 01:20:26;;;;;;;44.30;6.20;;;5.40;99.90;;;;;;5034304;28;20045;-76
2022/02/22 01:22:54;;;;;;;36.15;6.43;;;5.60;99.90;;;;;;5029632;28;20037;-76
2022/02/22 01:25:20;;;;;;;41.30;6.47;;;5.40;99.90;;;;;;5035311;28;20060;-76
2022/02/22 01:27:46;;;;;;;32.00;4.88;;;5.40;99.90;;;;;;5053254;28;20481;-76
2022/02/22 01:30:12;;;;;;;40.58;5.82;;;5.30;99.90;;;;;;5046248;28;20477;-76
2022/02/22 01:32:37;;;;;;;36.60;5.38;;;5.30;99.90;;;;;;5027072;28;20046;-76
2022/02/22 01:35:05;;;;;;;32.40;5.95;;;5.30;99.90;;;;;;5073641;28;20117;-77
2022/02/22 01:37:31;;;;;;;36.17;5.57;;;5.20;99.90;;;;;;5033523;28;20486;-78
2022/02/22 01:39:58;;;;;;;47.55;6.43;;;5.20;99.90;;;;;;5048097;28;20124;-78
2022/02/22 01:42:24;;;;;;;40.45;5.57;;;5.10;99.90;;;;;;5024703;28;20589;-78
2022/02/22 01:44:50;;;;;;;36.58;5.22;;;5.40;99.90;;;;;;5033123;28;20048;-78
2022/02/22 01:47:16;;;;;;;33.42;5.97;;;5.10;99.90;;;;;;5043173;28;20040;-78
2022/02/22 01:49:43;;;;;;;41.00;6.18;;;5.70;99.90;;;;;;5049977;28;20485;-78
2022/02/22 01:52:09;;;;;;;40.10;5.95;;;5.10;99.90;;;;;;5037914;28;20037;-78
2022/02/22 01:54:35;;;;;;;42.63;6.38;;;5.10;99.90;;;;;;5041351;28;20072;-78
2022/02/22 01:57:02;;;;;;;43.53;5.93;;;5.10;99.90;;;;;;5035911;28;20065;-78
2022/02/22 01:59:28;;;;;;;42.85;6.32;;;5.10;99.90;;;;;;5052531;28;20366;-78
2022/02/22 02:01:54;;;;;;;45.08;5.57;;;5.30;99.90;;;;;;5044706;28;20040;-78
2022/02/22 02:04:20;;;;;;;52.95;6.90;;;5.10;99.90;;;;;;5042417;28;20033;-78
2022/02/22 02:06:46;;;;;;;41.88;6.63;;;5.40;99.90;;;;;;5045797;28;20481;-79
2022/02/22 02:09:12;;;;;;;39.70;6.55;;;5.10;99.90;;;;;;5015249;28;20060;-79
2022/02/22 02:11:49;;;;;;;40.60;5.82;;;5.10;99.90;;;;;;5043041;28;20037;-78
2022/02/22 02:14:16;;;;;;;38.17;5.97;;;5.00;99.90;;;;;;5050663;28;20108;-77
2022/02/22 02:16:42;;;;;;;41.00;5.80;;;5.00;99.90;;;;;;5044771;28;20104;-77
2022/02/22 02:19:15;;;;;;;46.85;6.28;;;5.00;99.90;;;;;;5037144;28;20049;-78
2022/02/22 02:21:43;;;;;;;45.90;6.82;;;5.00;99.90;;;;;;5034517;28;20044;-78
2022/02/22 02:24:20;;;;;;;44.55;6.60;;;5.00;99.90;;;;;;5035089;28;20055;-78
2022/02/22 02:26:47;;;;;;;34.45;6.50;;;5.00;99.90;;;;;;5019868;28;20044;-78
2022/02/22 02:29:16;;;;;;;38.00;5.47;;;5.00;99.90;;;;;;5016550;28;20137;-79
2022/02/22 02:31:45;;;;;;;41.63;5.85;;;5.00;99.90;;;;;;5035021;28;20029;-78
2022/02/22 02:34:13;;;;;;;47.28;5.97;;;4.30;99.90;;;;;;5079652;28;20060;-78
2022/02/22 02:36:39;;;;;;;37.90;6.50;;;5.00;99.90;;;;;;5047827;28;20037;-78
2022/02/22 02:39:07;;;;;;;43.40;5.97;;;5.00;99.90;;;;;;5040020;28;20040;-78
2022/02/22 02:41:34;;;;;;;46.15;7.28;;;5.00;99.90;;;;;;5049921;28;20071;-76
2022/02/22 02:44:05;;;;;;;38.67;6.45;;;5.00;99.90;;;;;;5048296;28;20040;-76
2022/02/22 02:46:31;;;;;;;40.97;5.93;;;5.00;99.90;;;;;;5030353;28;20037;-76
2022/02/22 02:48:57;;;;;;;43.88;6.18;;;4.90;99.90;;;;;;5048509;28;20052;-76
2022/02/22 02:51:23;;;;;;;39.50;6.90;;;5.00;99.90;;;;;;5045321;28;20029;-75
2022/02/22 02:53:53;;;;;;;39.97;6.38;;;5.00;99.90;;;;;;5051560;28;20045;-75
2022/02/22 02:56:25;;;;;;;31.27;6.10;;;5.00;99.90;;;;;;5048994;28;20128;-75
2022/02/22 02:58:52;;;;;;;44.45;6.28;;;5.00;99.90;;;;;;5025358;28;20048;-75
2022/02/22 03:01:19;;;;;;;54.65;7.28;;;6.00;99.90;;;;;;5038325;28;20045;-75
2022/02/22 03:03:45;;;;;;;51.15;6.40;;;4.90;99.90;;;;;;5049005;28;20037;-75
2022/02/22 03:06:17;;;;;;;32.80;5.95;;;5.10;99.90;;;;;;5049260;28;20037;-78
2022/02/22 03:08:43;;;;;;;44.60;6.63;;;4.90;99.90;;;;;;5036734;28;20123;-78
2022/02/22 03:11:09;;;;;;;41.90;6.68;;;5.00;99.90;;;;;;5046146;28;20449;-78
2022/02/22 03:13:35;;;;;;;48.10;6.72;;;5.00;99.90;;;;;;5047073;28;20040;-75
2022/02/22 03:16:01;;;;;;;35.10;6.05;;;4.90;99.90;;;;;;5020954;28;20117;-78
2022/02/22 03:18:27;;;;;;;43.33;5.50;;;4.90;99.90;;;;;;5032306;28;20556;-78
2022/02/22 03:20:53;;;;;;;42.38;6.55;;;4.90;99.90;;;;;;5050646;28;20525;-78
2022/02/22 03:23:21;;;;;;;45.35;6.72;;;4.90;99.90;;;;;;5028538;28;20477;-78
2022/02/22 03:25:49;;;;;;;40.38;6.28;;;4.90;99.90;;;;;;5043087;28;20040;-78
2022/02/22 03:28:15;;;;;;;29.48;5.50;;;4.90;99.90;;;;;;5049923;28;20041;-78
2022/02/22 03:30:41;;;;;;;38.92;6.25;;;5.10;99.90;;;;;;5038273;28;20041;-78
2022/02/22 03:33:13;;;;;;;40.75;6.07;;;5.10;99.90;;;;;;5037652;28;20141;-76
2022/02/22 03:35:40;;;;;;;41.95;6.03;;;4.80;99.90;;;;;;5034642;28;20076;-76
2022/02/22 03:38:06;;;;;;;42.10;5.90;;;4.80;99.90;;;;;;5016931;28;20049;-76
2022/02/22 03:40:32;;;;;;;38.25;5.72;;;4.70;99.90;;;;;;5042496;28;20045;-76
2022/02/22 03:42:58;;;;;;;40.53;5.40;;;4.70;99.90;;;;;;5050359;28;20059;-77
2022/02/22 03:45:24;;;;;;;41.25;6.00;;;4.70;99.90;;;;;;5027172;28;20475;-77
2022/02/22 03:47:50;;;;;;;38.72;6.85;;;4.70;99.90;;;;;;5047552;28;20106;-77
2022/02/22 03:50:17;;;;;;;37.33;5.38;;;4.70;99.90;;;;;;5073386;28;20041;-77
2022/02/22 03:52:45;;;;;;;39.47;5.20;;;4.70;99.90;;;;;;5048835;28;20048;-77
2022/02/22 03:55:11;;;;;;;32.42;5.60;;;4.70;99.90;;;;;;5038145;28;20135;-76
2022/02/22 03:57:38;;;;;;;40.78;5.78;;;4.60;99.90;;;;;;5050108;28;20093;-76
2022/02/22 04:00:10;;;;;;;41.53;5.85;;;4.60;99.90;;;;;;5054316;28;20037;-76
2022/02/22 04:02:37;;;;;;;43.88;5.63;;;4.60;99.90;;;;;;5047863;28;20045;-76
2022/02/22 04:05:07;;;;;;;38.60;5.97;;;4.60;99.90;;;;;;5042648;28;20110;-76
2022/02/22 04:07:34;;;;;;;36.42;5.50;;;4.60;99.90;;;;;;5046045;28;20056;-77
2022/02/22 04:10:00;;;;;;;34.85;4.97;;;4.60;99.90;;;;;;5036433;28;20041;-77
2022/02/22 04:12:25;;;;;;;38.17;6.45;;;4.60;99.90;;;;;;5034554;28;20061;-77
2022/02/22 04:14:51;;;;;;;37.42;6.13;;;4.80;99.90;;;;;;5048948;28;20041;-77
2022/02/22 04:17:17;;;;;;;44.00;6.25;;;4.60;99.90;;;;;;5052483;28;20087;-76
2022/02/22 04:19:43;;;;;;;33.65;5.78;;;4.50;99.90;;;;;;5054147;28;20543;-77
2022/02/22 04:22:09;;;;;;;45.22;6.20;;;4.60;99.90;;;;;;5034973;28;20124;-77
2022/02/22 04:24:36;;;;;;;33.13;5.18;;;4.80;99.90;;;;;;5040881;28;20136;-77
2022/02/22 04:27:06;;;;;;;37.05;6.20;;;4.50;99.90;;;;;;5052901;28;20044;-77
2022/02/22 04:29:31;;;;;;;44.17;5.97;;;4.50;99.90;;;;;;5053722;28;20048;-77
2022/02/22 04:31:58;;;;;;;43.55;5.95;;;4.50;99.90;;;;;;5051438;28;20041;-77
2022/02/22 04:34:24;;;;;;;30.83;5.40;;;4.50;99.90;;;;;;5049640;28;20114;-77
2022/02/22 04:36:50;;;;;;;41.40;5.90;;;4.50;99.90;;;;;;5047879;28;20047;-77
2022/02/22 04:39:16;;;;;;;35.30;5.80;;;4.50;99.90;;;;;;5029125;28;20121;-77
2022/02/22 04:41:42;;;;;;;26.35;4.65;;;4.50;99.90;;;;;;5039023;28;20143;-77
2022/02/22 04:44:08;;;;;;;47.70;5.70;;;4.50;99.90;;;;;;5034518;28;20400;-77
2022/02/22 04:46:34;;;;;;;39.33;5.10;;;4.50;99.90;;;;;;5045734;28;20098;-77
2022/02/22 04:48:59;;;;;;;36.47;5.53;;;4.50;99.90;;;;;;5036600;28;20128;-77
2022/02/22 04:51:26;;;;;;;43.90;6.38;;;5.30;99.90;;;;;;5049771;28;20505;-76
2022/02/22 04:53:52;;;;;;;43.83;6.15;;;4.50;99.90;;;;;;5033522;28;20098;-77
2022/02/22 04:56:18;;;;;;;39.63;5.60;;;4.70;99.90;;;;;;5029160;28;20040;-77
2022/02/22 04:58:43;;;;;;;43.88;5.53;;;4.50;99.90;;;;;;5052906;28;20041;-77
2022/02/22 05:01:09;;;;;;;43.35;7.15;;;4.50;99.90;;;;;;5051877;28;20033;-77
2022/02/22 05:03:38;;;;;;;40.20;6.10;;;4.50;99.90;;;;;;5033120;28;20389;-77
2022/02/22 05:06:04;;;;;;;36.88;5.22;;;4.50;99.90;;;;;;5031024;28;20069;-77
2022/02/22 05:08:29;;;;;;;39.65;5.45;;;4.50;99.90;;;;;;5036790;28;20119;-77
2022/02/22 05:10:58;;;;;;;46.78;6.38;;;4.50;99.90;;;;;;5037383;28;20398;-77
2022/02/22 05:13:23;;;;;;;48.95;7.90;;;4.50;99.90;;;;;;5064231;28;20120;-77
2022/02/22 05:15:52;;;;;;;47.85;6.93;;;4.50;99.90;;;;;;5043428;28;20167;-77
2022/02/22 05:18:18;;;;;;;44.88;7.30;;;4.50;99.90;;;;;;5053506;28;20146;-77
2022/02/22 05:20:54;;;;;;;35.42;6.47;;;4.50;99.90;;;;;;5052708;28;20045;-77
2022/02/22 05:23:24;;;;;;;31.70;5.53;;;5.60;99.90;;;;;;5052526;28;20137;-77
2022/02/22 05:25:51;;;;;;;38.42;6.15;;;4.50;99.90;;;;;;5050900;28;20384;-76
2022/02/22 05:28:22;;;;;;;41.30;6.40;;;4.50;99.90;;;;;;5048536;28;20371;-76
2022/02/22 05:30:49;;;;;;;45.67;6.22;;;4.50;99.90;;;;;;5045055;28;20056;-76
2022/02/22 05:33:16;;;;;;;43.15;6.15;;;4.50;99.90;;;;;;5033483;28;20045;-76
2022/02/22 05:35:46;;;;;;;47.75;6.25;;;4.50;99.90;;;;;;5033037;28;20034;-77
2022/02/22 05:38:13;;;;;;;46.47;5.72;;;4.60;99.90;;;;;;5051158;28;20389;-77
2022/02/22 05:40:39;;;;;;;49.25;7.45;;;4.60;99.90;;;;;;5050936;28;20103;-77
2022/02/22 05:43:05;;;;;;;41.80;5.88;;;4.50;99.90;;;;;;5049291;28;20049;-77
2022/02/22 05:45:30;;;;;;;40.45;5.97;;;4.50;99.90;;;;;;5033221;28;20370;-77
2022/02/22 05:47:59;;;;;;;44.58;6.53;;;4.50;99.90;;;;;;5038543;28;20044;-77
2022/02/22 05:50:26;;;;;;;41.67;6.13;;;4.50;99.90;;;;;;5051624;28;20120;-77
2022/02/22 05:52:53;;;;;;;39.75;7.22;;;4.50;99.90;;;;;;5033287;28;20040;-77
2022/02/22 05:55:19;;;;;;;42.95;5.88;;;4.50;99.90;;;;;;5052322;28;20162;-77
2022/02/22 05:57:48;;;;;;;39.90;6.35;;;4.50;99.90;;;;;;5030853;28;20045;-77
2022/02/22 06:00:14;;;;;;;41.65;6.88;;;5.20;99.90;;;;;;5051651;28;20447;-76
2022/02/22 06:02:40;;;;;;;38.25;6.13;;;4.50;99.90;;;;;;5027739;28;20045;-77
2022/02/22 06:05:06;;;;;;;45.83;6.60;;;4.50;99.90;;;;;;5046898;28;20175;-77
2022/02/22 06:07:32;;;;;;;44.67;6.05;;;4.50;99.90;;;;;;5038884;28;20049;-77
2022/02/22 06:09:57;;;;;;;45.40;6.30;;;4.50;99.90;;;;;;5047632;28;20047;-77
2022/02/22 06:12:26;;;;;;;43.08;6.57;;;4.50;99.90;;;;;;5051143;28;20043;-77
2022/02/22 06:14:52;;;;;;;38.17;5.47;;;4.50;99.90;;;;;;5014830;28;20452;-77
2022/02/22 06:17:18;;;;;;;47.60;5.57;;;4.70;99.90;;;;;;5031038;28;20091;-77
2022/02/22 06:19:44;;;;;;;43.90;6.03;;;4.50;99.90;;;;;;5034043;28;20052;-77
2022/02/22 06:22:10;;;;;;;46.97;6.47;;;4.50;99.90;;;;;;5051417;28;20454;-77
2022/02/22 06:24:35;;;;;;;38.92;6.35;;;4.50;99.90;;;;;;5052831;28;20032;-77
2022/02/22 06:27:01;;;;;;;47.10;5.82;;;5.00;99.90;;;;;;5052035;28;20115;-77
2022/02/22 06:29:27;;;;;;;47.63;5.45;;;4.50;99.90;;;;;;5052683;28;20052;-77
2022/02/22 06:31:53;;;;;;;40.55;5.82;;;4.40;99.90;;;;;;5035080;28;20043;-77
2022/02/22 06:34:18;;;;;;;40.83;5.90;;;4.50;99.90;;;;;;5033573;28;20447;-77
2022/02/22 06:36:44;;;;;;;51.70;6.97;;;4.80;99.90;;;;;;5042789;28;20080;-77
2022/02/22 06:39:10;;;;;;;45.38;5.78;;;4.30;99.90;;;;;;5051256;28;20041;-77
2022/02/22 06:41:36;;;;;;;38.88;5.63;;;4.60;99.90;;;;;;5049149;28;20112;-77
2022/02/22 06:44:02;;;;;;;49.22;6.60;;;4.50;99.90;;;;;;5024556;28;20056;-77
2022/02/22 06:46:28;;;;;;;37.92;6.43;;;4.40;99.90;;;;;;5049589;28;20374;-77
2022/02/22 06:48:54;;;;;;;45.05;6.15;;;4.50;99.90;;;;;;5049608;28;20048;-75
2022/02/22 06:51:20;;;;;;;38.38;6.13;;;4.40;99.90;;;;;;5044828;28;20477;-75
2022/02/22 06:53:45;;;;;;;42.00;6.00;;;4.40;99.90;;;;;;5046740;28;20036;-75
2022/02/22 06:56:11;;;;;;;40.22;6.10;;;4.40;99.90;;;;;;5044694;28;20041;-71
2022/02/22 06:58:43;;;;;;;41.00;5.65;;;4.40;99.90;;;;;;5044859;28;20033;-72
2022/02/22 07:01:09;;;;;;;38.08;5.28;;;4.40;99.90;;;;;;5029519;28;20041;-72
2022/02/22 07:03:34;;;;;;;51.90;6.18;;;5.00;99.90;;;;;;5052059;28;20040;-73
2022/02/22 07:06:01;;;;;;;41.88;6.38;;;4.40;99.90;;;;;;5050275;28;20033;-72
2022/02/22 07:08:27;;;;;;;40.60;5.63;;;5.10;99.90;;;;;;5050011;28;20045;-72
2022/02/22 07:10:53;;;;;;;41.30;7.63;;;4.40;99.90;;;;;;5047036;28;20045;-74
2022/02/22 07:13:18;;;;;;;45.58;7.43;;;4.40;99.90;;;;;;5063868;28;20037;-71
2022/02/22 07:15:44;;;;;;;40.20;6.85;;;4.40;99.90;;;;;;5048210;28;20082;-71
2022/02/22 07:18:11;;;;;;;49.45;6.57;;;4.40;99.90;;;;;;5049552;28;20048;-72
2022/02/22 07:20:37;;;;;;;65.68;7.22;;;4.40;99.90;;;;;;5049899;28;20463;-73
2022/02/22 07:23:03;;;;;;;40.58;6.25;;;4.40;99.90;;;;;;5049071;28;20111;-72
2022/02/22 07:25:30;;;;;;;40.70;6.50;;;4.50;99.90;;;;;;5051936;28;20388;-72
2022/02/22 07:27:58;;;;;;;47.83;6.85;;;4.50;99.90;;;;;;5049307;28;20116;-72
2022/02/22 07:30:27;;;;;;;39.45;5.72;;;4.50;99.90;;;;;;5056024;28;20091;-72
2022/02/22 07:32:59;;;;;;;40.88;5.55;;;4.80;99.90;;;;;;5049394;28;20048;-72
2022/02/22 07:35:25;;;;;;;38.90;5.88;;;4.60;99.90;;;;;;5034673;28;20171;-72
2022/02/22 07:37:52;;;;;;;46.85;5.63;;;4.60;99.90;;;;;;5050959;28;20084;-74
2022/02/22 07:40:19;;;;;;;37.55;5.72;;;4.60;99.90;;;;;;5026901;28;20045;-73
2022/02/22 07:42:46;;;;;;;44.30;5.70;;;4.60;99.90;;;;;;5049907;28;20047;-72
2022/02/22 07:45:13;;;;;;;47.38;6.10;;;4.60;99.90;;;;;;5050589;28;20047;-73
2022/02/22 07:47:39;;;;;;;44.88;5.90;;;4.60;99.90;;;;;;5052387;28;20410;-73
2022/02/22 07:50:06;;;;;;;34.88;5.75;;;4.60;99.90;;;;;;5048723;28;20036;-72
2022/02/22 07:52:33;;;;;;;44.53;6.28;;;4.60;99.90;;;;;;5050064;28;20033;-73
2022/02/22 07:54:59;;;;;;;43.63;5.85;;;4.70;99.90;;;;;;5051450;28;20394;-72
2022/02/22 07:57:25;;;;;;;38.50;5.65;;;4.70;99.90;;;;;;5016352;28;20075;-72
2022/02/22 07:59:53;;;;;;;43.55;5.57;;;4.70;99.90;;;;;;5050888;28;20036;-73
2022/02/22 08:02:19;;;;;;;41.67;6.03;;;4.70;99.90;;;;;;5050458;28;20033;-71
2022/02/22 08:04:45;;;;;;;49.97;6.93;;;4.80;99.90;;;;;;5049876;28;20750;-70
2022/02/22 08:07:11;;;;;;;41.42;6.13;;;4.80;99.90;;;;;;5049086;28;20041;-70
2022/02/22 08:09:37;;;;;;;35.83;5.35;;;4.90;99.90;;;;;;5051689;28;20041;-70
2022/02/22 08:12:04;;;;;;;47.25;6.70;;;4.90;99.90;;;;;;5050602;28;20041;-70
2022/02/22 08:14:30;;;;;;;35.30;5.68;;;4.90;99.90;;;;;;5049369;28;20485;-70
2022/02/22 08:17:00;;;;;;;38.92;5.80;;;5.00;99.90;;;;;;5051545;28;20056;-70
2022/02/22 08:19:30;;;;;;;40.35;5.53;;;5.00;99.90;;;;;;5050290;28;20405;-70
2022/02/22 08:21:57;;;;;;;37.35;5.35;;;5.60;99.90;;;;;;5050650;28;20053;-71
2022/02/22 08:24:24;;;;;;;42.72;6.22;;;5.20;99.90;;;;;;5047325;28;20048;-70
2022/02/22 08:26:54;;;;;;;38.72;6.13;;;5.20;99.90;;;;;;5050584;28;20061;-70
2022/02/22 08:29:21;;;;;;;50.55;6.18;;;5.30;99.90;;;;;;5049912;28;20036;-70
2022/02/22 08:31:47;;;;;;;47.47;6.28;;;5.30;99.90;;;;;;5048210;28;20098;-70
2022/02/22 08:34:13;;;;;;;42.10;6.53;;;5.40;99.90;;;;;;5049557;28;20033;-70
2022/02/22 08:36:39;;;;;;;34.45;6.10;;;5.40;99.90;;;;;;5050095;28;20141;-71
2022/02/22 08:39:05;;;;;;;37.03;5.13;;;5.50;99.90;;;;;;5049354;28;20037;-78
2022/02/22 08:41:31;;;;;;;41.35;5.22;;;5.50;99.90;;;;;;5047697;28;20037;-79
2022/02/22 08:43:57;;;;;;;33.85;5.68;;;5.50;99.90;;;;;;5051856;28;20045;-78
2022/02/22 08:46:25;;;;;;;37.15;5.47;;;5.60;99.90;;;;;;5050203;28;20045;-78
2022/02/22 08:48:51;;;;;;;38.10;6.05;;;6.00;99.90;;;;;;5032808;28;20499;-77
2022/02/22 08:51:17;;;;;;;37.80;5.38;;;6.60;99.90;;;;;;5048154;28;20423;-71
2022/02/22 08:53:43;;;;;;;31.38;4.65;;;5.70;99.90;;;;;;5048654;28;20835;-71
2022/02/22 08:56:09;;;;;;;29.95;5.95;;;5.80;99.90;;;;;;5046797;28;20411;-69
2022/02/22 08:58:38;;;;;;;29.75;5.63;;;5.90;99.90;;;;;;5048789;28;20060;-69
2022/02/22 09:01:03;;;;;;;36.03;5.72;;;5.90;99.90;;;;;;5049781;28;20036;-71
2022/02/22 09:03:29;;;;;;;36.92;5.30;;;6.00;99.90;;;;;;5049262;28;20447;-72
2022/02/22 09:05:55;;;;;;;38.85;5.35;;;6.00;99.90;;;;;;5032694;28;20057;-72
2022/02/22 09:08:22;;;;;;;36.08;5.90;;;6.20;99.90;;;;;;5048414;28;20084;-70
2022/02/22 09:10:49;;;;;;;38.92;5.35;;;6.10;99.90;;;;;;5047426;28;20094;-70
2022/02/22 09:13:15;;;;;;;36.47;5.63;;;6.10;99.90;;;;;;5046854;28;20086;-70
2022/02/22 09:15:41;;;;;;;26.88;5.30;;;6.20;99.90;;;;;;5062462;28;20040;-70
2022/02/22 09:18:07;;;;;;;34.72;5.78;;;6.50;99.90;;;;;;5047625;28;20080;-78
2022/02/22 09:20:34;;;;;;;42.85;5.40;;;6.30;99.90;;;;;;5049929;28;20080;-71
2022/02/22 09:23:00;;;;;;;31.15;4.70;;;6.30;99.90;;;;;;5047020;28;20049;-71
2022/02/22 09:25:32;;;;;;;32.92;4.20;;;6.30;99.90;;;;;;5045367;28;20386;-71
2022/02/22 09:27:59;;;;;;;32.05;4.75;;;6.40;99.90;;;;;;5079419;28;20044;-71
2022/02/22 09:30:26;;;;;;;26.50;4.40;;;6.40;99.90;;;;;;5047165;28;20044;-73
2022/02/22 09:32:52;;;;;;;30.73;4.40;;;6.40;99.90;;;;;;5031887;28;20039;-73
2022/02/22 09:35:24;;;;;;;40.88;5.43;;;6.70;99.90;;;;;;5048247;28;20103;-77
2022/02/22 09:37:51;;;;;;;32.28;5.18;;;6.40;99.90;;;;;;5030496;28;20040;-77
2022/02/22 09:40:17;;;;;;;27.52;5.32;;;6.50;99.90;;;;;;5046769;28;20045;-78
2022/02/22 09:42:44;;;;;;;42.33;5.78;;;6.50;99.90;;;;;;5032691;28;20095;-78
2022/02/22 09:45:11;;;;;;;29.40;4.53;;;6.50;99.90;;;;;;5033002;28;20052;-77
2022/02/22 09:47:37;;;;;;;29.42;4.35;;;6.60;99.90;;;;;;5045356;28;20037;-78
2022/02/22 09:50:05;;;;;;;28.65;4.38;;;6.60;99.90;;;;;;5046372;28;20132;-78
2022/02/22 09:52:32;;;;;;;32.10;4.47;;;6.60;99.90;;;;;;5048191;28;20044;-79
2022/02/22 09:54:58;;;;;;;25.98;4.20;;;6.60;99.90;;;;;;5049056;28;20044;-77
2022/02/22 09:57:24;;;;;;;32.15;4.72;;;6.60;99.90;;;;;;5047526;28;20081;-76
2022/02/22 09:59:49;;;;;;;24.50;3.92;;;6.60;99.90;;;;;;5049075;28;20064;-76
2022/02/22 10:02:16;;;;;;;24.17;4.43;;;6.70;99.90;;;;;;5046956;28;20159;-76
2022/02/22 10:04:43;;;;;;;26.48;4.45;;;6.70;99.90;;;;;;5045440;28;20040;-77
2022/02/22 10:07:09;;;;;;;34.00;4.70;;;6.70;99.90;;;;;;5046888;28;20564;-77
2022/02/22 10:09:40;;;;;;;23.98;4.10;;;6.70;99.90;;;;;;5046979;28;20037;-81
2022/02/22 10:12:06;;;;;;;28.08;4.88;;;6.80;99.90;;;;;;5059137;28;20044;-81
2022/02/22 10:14:38;;;;;;;37.58;5.38;;;6.80;99.90;;;;;;5046724;28;20393;-80
2022/02/22 10:17:04;;;;;;;35.70;5.60;;;6.80;99.90;;;;;;5046110;28;20041;-81
2022/02/22 10:19:34;;;;;;;30.92;5.60;;;6.80;99.90;;;;;;5048567;28;20061;-75
2022/02/22 10:22:11;;;;;;;32.38;5.72;;;6.90;99.90;;;;;;5027923;28;20037;-80
2022/02/22 10:24:37;;;;;;;39.35;5.78;;;6.90;99.90;;;;;;5047913;28;20068;-80
2022/02/22 10:27:08;;;;;;;36.13;7.25;;;6.90;99.90;;;;;;5029990;28;20065;-80
2022/02/22 10:29:35;;;;;;;33.80;6.32;;;7.40;99.90;;;;;;5048222;28;20044;-81
2022/02/22 10:32:12;;;;;;;37.95;6.68;;;7.00;99.90;;;;;;5059723;28;20041;-76
2022/02/22 10:34:38;;;;;;;36.47;6.38;;;7.10;99.90;;;;;;5048253;28;20115;-74
2022/02/22 10:37:06;;;;;;;39.78;6.60;;;7.10;99.90;;;;;;5048678;28;20041;-74
2022/02/22 10:39:32;;;;;;;39.38;6.95;;;7.20;99.90;;;;;;5030544;28;20145;-74
2022/02/22 10:41:58;;;;;;;39.30;6.63;;;7.20;99.90;;;;;;5030014;28;20131;-73
2022/02/22 10:44:39;;;;;;;47.78;7.05;;;7.10;99.90;;;;;;5046794;28;20497;-74
2022/02/22 10:47:20;;;;;;;43.95;8.05;;;7.10;99.90;;;;;;5049172;28;20045;-74
2022/02/22 10:49:48;;;;;;;42.75;7.10;;;7.20;99.90;;;;;;5048276;28;20385;-74
2022/02/22 10:52:13;;;;;;;39.78;7.43;;;7.20;99.90;;;;;;5047285;28;20064;-76
2022/02/22 10:54:41;;;;;;;43.08;7.18;;;7.20;99.90;;;;;;5047740;28;20503;-76
2022/02/22 10:57:07;;;;;;;44.33;7.57;;;7.20;99.90;;;;;;5046317;28;20507;-74
2022/02/22 10:59:36;;;;;;;38.00;7.07;;;7.20;99.90;;;;;;5028898;28;20079;-72
2022/02/22 11:02:03;;;;;;;43.50;7.68;;;7.30;99.90;;;;;;5028524;28;20132;-73
2022/02/22 11:04:31;;;;;;;36.33;7.20;;;7.30;99.90;;;;;;5029499;28;20045;-73
2022/02/22 11:06:56;;;;;;;43.95;7.32;;;7.40;99.90;;;;;;5045986;28;20423;-74
2022/02/22 11:09:31;;;;;;;37.08;6.60;;;7.20;99.90;;;;;;5047875;28;20037;-74
2022/02/22 11:12:07;;;;;;;43.47;7.30;;;7.40;99.90;;;;;;5046895;28;20374;-74
2022/02/22 11:14:35;;;;;;;41.53;7.30;;;7.40;99.90;;;;;;5051243;28;20485;-72
2022/02/22 11:17:16;;;;;;;36.22;6.65;;;7.40;99.90;;;;;;5032240;28;20555;-75
2022/02/22 11:19:41;;;;;;;37.70;7.22;;;7.40;99.90;;;;;;5050765;28;20481;-74
2022/02/22 11:22:17;;;;;;;41.42;6.68;;;7.40;99.90;;;;;;5046226;28;20171;-73
2022/02/22 11:24:54;;;;;;;51.72;8.30;;;7.40;99.90;;;;;;5046941;28;20037;-74
2022/02/22 11:27:42;;;;;;;40.03;6.85;;;7.40;99.90;;;;;;5035840;28;20393;-75
2022/02/22 11:30:13;;;;;;;33.63;6.40;;;7.40;99.90;;;;;;5050886;28;20043;-75
2022/02/22 11:32:41;;;;;;;38.17;6.55;;;7.50;99.90;;;;;;5051275;28;20412;-75
2022/02/22 11:35:11;;;;;;;42.90;6.82;;;7.80;99.90;;;;;;5052239;28;20512;-74
2022/02/22 11:37:40;;;;;;;41.33;7.63;;;7.40;99.90;;;;;;5051271;28;20051;-74
2022/02/22 11:40:09;;;;;;;39.15;7.10;;;7.40;99.90;;;;;;5044921;28;20555;-77
2022/02/22 11:42:38;;;;;;;45.83;7.25;;;7.40;99.90;;;;;;5028883;28;20493;-77
2022/02/22 11:45:08;;;;;;;38.42;6.43;;;7.50;99.90;;;;;;5056529;28;20052;-76
2022/02/22 11:47:36;;;;;;;42.97;6.65;;;7.50;99.90;;;;;;5040383;28;20509;-76
2022/02/22 11:50:15;;;;;;;39.53;6.50;;;8.20;99.90;;;;;;5049511;28;20041;-75
2022/02/22 11:52:50;;;;;;;40.33;6.38;;;7.50;99.90;;;;;;5048390;28;20516;-76
2022/02/22 11:55:19;;;;;;;42.08;6.05;;;7.50;99.90;;;;;;5038669;28;20039;-75
2022/02/22 11:57:55;;;;;;;32.05;6.20;;;7.50;99.90;;;;;;5050701;28;20037;-75
2022/02/22 12:00:41;;;;;;;45.28;6.63;;;7.50;99.90;;;;;;5034708;28;20122;-74
2022/02/22 12:03:08;;;;;;;36.75;6.68;;;7.50;99.90;;;;;;5042298;28;20053;-74
2022/02/22 12:05:41;;;;;;;42.22;7.28;;;7.50;99.90;;;;;;5051365;28;20041;-75
2022/02/22 12:08:16;;;;;;;39.03;6.30;;;7.50;99.90;;;;;;5034667;28;20447;-75
2022/02/22 12:10:45;;;;;;;36.97;7.25;;;7.40;99.90;;;;;;5034165;28;20124;-76
2022/02/22 12:13:12;;;;;;;38.60;6.97;;;7.40;99.90;;;;;;5035632;28;20065;-74
2022/02/22 12:15:39;;;;;;;32.40;6.05;;;7.40;99.90;;;;;;5034156;28;20058;-75
2022/02/22 12:18:36;;;;;;;32.47;6.72;;;7.40;99.90;;;;;;5048064;28;20040;-79
2022/02/22 12:21:23;;;;;;;47.08;7.40;;;7.30;99.90;;;;;;5044748;28;20049;-75
2022/02/22 12:23:54;;;;;;;38.08;6.97;;;7.30;99.90;;;;;;5054978;28;20052;-75
2022/02/22 12:26:25;;;;;;;33.67;6.32;;;7.30;99.90;;;;;;5053089;28;20029;-76
2022/02/22 12:29:03;;;;;;;29.67;6.93;;;7.00;99.90;;;;;;5045539;28;20069;-76
2022/02/22 12:31:43;;;;;;;34.47;6.60;;;7.30;99.90;;;;;;5030794;28;20549;-77
2022/02/22 12:34:18;;;;;;;39.22;6.53;;;7.30;99.90;;;;;;5046893;28;20037;-79
2022/02/22 12:36:58;;;;;;;36.30;6.83;;;7.20;99.90;;;;;;5052594;28;20071;-75
2022/02/22 12:42:51;;;;;;;35.50;7.75;;;7.50;99.90;;;;;;5067250;28;20175;-79
2022/02/22 12:45:17;;;;;;;46.92;8.57;;;7.30;99.90;;;;;;5044305;28;20033;-77
2022/02/22 12:47:43;;;;;;;36.10;8.60;;;7.30;99.90;;;;;;5049918;28;20049;-77
2022/02/22 12:50:11;;;;;;;45.75;9.27;;;7.30;99.90;;;;;;5038132;28;20456;-76
2022/02/22 12:52:38;;;;;;;39.53;8.63;;;7.30;99.90;;;;;;5047752;28;20052;-76
2022/02/22 12:55:09;;;;;;;37.25;8.48;;;7.30;99.90;;;;;;5046805;28;20072;-77